Time,TemperatureF,DewpointF,PressureIn,WindDirection,WindDirectionDegrees,WindSpeedMPH,WindSpeedGustMPH,Humidity,HourlyPrecipIn,Conditions,Clouds,dailyrainin,SoftwareType,DateUTC
2013-06-05 00:06:00,41.5,18.5,30.06,East,97,5.0,10.1,39,0.00,,,-99.99,FreeWX 2.04,2013-06-05 06:06:00,
2013-06-05 00:16:00,40.5,17.4,30.06,East,100,4.0,7.4,39,0.00,,,-99.99,FreeWX 2.04,2013-06-05 06:16:00,
2013-06-05 00:26:00,40.3,18.0,30.06,East,99,4.0,9.2,40,0.00,,,-99.99,FreeWX 2.04,2013-06-05 06:26:00,
2013-06-05 00:36:00,39.0,18.0,30.06,East,93,3.0,7.4,42,0.00,,,-99.99,FreeWX 2.04,2013-06-05 06:36:00,
2013-06-05 00:46:00,39.2,18.1,30.06,East,96,3.0,8.3,42,0.00,,,-99.99,FreeWX 2.04,2013-06-05 06:46:00,
2013-06-05 00:56:00,39.0,18.0,30.06,East,95,4.0,7.8,42,0.00,,,-99.99,FreeWX 2.04,2013-06-05 06:56:00,
2013-06-05 01:06:00,38.1,18.1,30.06,East,87,2.0,6.7,44,0.00,,,-99.99,FreeWX 2.04,2013-06-05 07:06:00,
2013-06-05 01:16:00,39.2,18.1,30.06,ESE,102,4.0,7.8,42,0.00,,,-99.99,FreeWX 2.04,2013-06-05 07:16:00,
2013-06-05 01:26:00,38.8,17.8,30.06,East,93,4.0,8.3,42,0.00,,,-99.99,FreeWX 2.04,2013-06-05 07:26:00,
2013-06-05 01:36:00,38.3,17.8,30.06,East,96,4.0,6.9,43,0.00,,,-99.99,FreeWX 2.04,2013-06-05 07:36:00,
2013-06-05 01:46:00,38.7,17.6,30.06,East,99,5.0,10.5,42,0.00,,,-99.99,FreeWX 2.04,2013-06-05 07:46:00,
2013-06-05 01:56:00,37.9,18.0,30.06,East,87,3.0,6.9,44,0.00,,,-99.99,FreeWX 2.04,2013-06-05 07:56:00,
2013-06-05 02:07:00,38.7,18.1,30.06,East,89,4.0,8.3,43,0.00,,,-99.99,FreeWX 2.04,2013-06-05 08:07:00,
2013-06-05 02:17:00,38.1,17.6,30.06,East,91,4.0,8.3,43,0.00,,,-99.99,FreeWX 2.04,2013-06-05 08:17:00,
2013-06-05 02:27:00,37.2,18.3,30.06,ENE,76,3.0,5.8,46,0.00,,,-99.99,FreeWX 2.04,2013-06-05 08:27:00,
2013-06-05 02:37:00,37.4,18.5,30.06,East,83,4.0,8.7,46,0.00,,,-99.99,FreeWX 2.04,2013-06-05 08:37:00,
2013-06-05 02:47:00,37.4,18.0,30.06,East,88,3.0,6.3,45,0.00,,,-99.99,FreeWX 2.04,2013-06-05 08:47:00,
2013-06-05 02:57:00,37.0,18.1,30.06,East,81,2.0,5.8,46,0.00,,,-99.99,FreeWX 2.04,2013-06-05 08:57:00,
2013-06-05 03:07:00,37.0,17.8,30.06,East,92,3.0,6.7,45,0.00,,,-99.99,FreeWX 2.04,2013-06-05 09:07:00,
2013-06-05 03:17:00,36.9,18.5,30.06,East,85,4.0,6.7,47,0.00,,,-99.99,FreeWX 2.04,2013-06-05 09:17:00,
2013-06-05 03:27:00,36.7,18.9,30.06,ENE,78,3.0,6.3,48,0.00,,,-99.99,FreeWX 2.04,2013-06-05 09:27:00,
2013-06-05 03:37:00,36.3,18.5,30.06,East,87,2.0,5.8,48,0.00,,,-99.99,FreeWX 2.04,2013-06-05 09:37:00,
2013-06-05 03:47:00,37.0,17.8,30.06,East,88,4.0,8.3,45,0.00,,,-99.99,FreeWX 2.04,2013-06-05 09:47:00,
2013-06-05 03:57:00,37.0,17.2,30.06,East,93,4.0,7.4,44,0.00,,,-99.99,FreeWX 2.04,2013-06-05 09:57:00,
2013-06-05 04:07:00,36.3,17.6,30.06,East,91,3.0,6.7,46,0.00,,,-99.99,FreeWX 2.04,2013-06-05 10:07:00,
2013-06-05 04:17:00,36.5,17.8,30.06,East,94,3.0,7.8,46,0.00,,,-99.99,FreeWX 2.04,2013-06-05 10:17:00,
2013-06-05 04:27:00,36.1,18.3,30.06,East,95,3.0,7.8,48,0.00,,,-99.99,FreeWX 2.04,2013-06-05 10:27:00,
2013-06-05 04:37:00,36.3,18.0,30.06,East,83,3.0,6.7,47,0.00,,,-99.99,FreeWX 2.04,2013-06-05 10:37:00,
2013-06-05 04:47:00,37.4,17.4,30.06,ESE,102,4.0,7.4,44,0.00,,,-99.99,FreeWX 2.04,2013-06-05 10:47:00,
2013-06-05 04:57:00,36.1,18.0,30.06,East,85,3.0,7.8,47,0.00,,,-99.99,FreeWX 2.04,2013-06-05 10:57:00,
2013-06-05 05:07:00,35.6,18.9,30.06,ENE,78,3.0,6.3,50,0.00,,,-99.99,FreeWX 2.04,2013-06-05 11:07:00,
2013-06-05 05:17:00,35.8,18.5,30.06,East,84,4.0,6.7,49,0.00,,,-99.99,FreeWX 2.04,2013-06-05 11:17:00,
2013-06-05 05:27:00,35.8,18.5,30.06,East,86,3.0,5.8,49,0.00,,,-99.99,FreeWX 2.04,2013-06-05 11:27:00,
2013-06-05 05:37:00,35.8,18.5,30.06,ENE,74,3.0,6.3,49,0.00,,,-99.99,FreeWX 2.04,2013-06-05 11:37:00,
2013-06-05 05:47:00,35.6,18.3,30.06,East,85,3.0,6.7,49,0.00,,,-99.99,FreeWX 2.04,2013-06-05 11:47:00,
2013-06-05 05:57:00,35.4,18.1,30.06,East,89,3.0,6.3,49,0.00,,,-99.99,FreeWX 2.04,2013-06-05 11:57:00,
2013-06-05 06:07:00,36.0,19.2,30.06,East,86,4.0,7.4,50,0.00,,,-99.99,FreeWX 2.04,2013-06-05 12:07:00,
2013-06-05 06:17:00,36.0,18.7,30.06,East,88,4.0,7.8,49,0.00,,,-99.99,FreeWX 2.04,2013-06-05 12:17:00,
2013-06-05 06:27:00,36.7,18.9,30.06,East,91,1.0,5.8,48,0.00,,,-99.99,FreeWX 2.04,2013-06-05 12:27:00,
2013-06-05 06:37:00,36.9,19.6,30.06,East,82,3.0,6.9,49,0.00,,,-99.99,FreeWX 2.04,2013-06-05 12:37:00,
2013-06-05 06:47:00,37.4,19.6,30.06,East,82,3.0,6.9,48,0.00,,,-99.99,FreeWX 2.04,2013-06-05 12:47:00,
2013-06-05 06:57:00,38.5,19.9,30.06,East,79,3.0,6.9,47,0.00,,,-99.99,FreeWX 2.04,2013-06-05 12:57:00,
2013-06-05 07:07:00,38.8,19.8,30.06,ENE,73,3.0,6.7,46,0.00,,,-99.99,FreeWX 2.04,2013-06-05 13:07:00,
2013-06-05 07:17:00,40.3,20.7,30.06,East,83,3.0,5.8,45,0.00,,,-99.99,FreeWX 2.04,2013-06-05 13:17:00,
2013-06-05 07:27:00,41.4,21.0,30.06,East,79,2.0,5.4,44,0.00,,,-99.99,FreeWX 2.04,2013-06-05 13:27:00,
2013-06-05 07:37:00,42.8,20.7,30.06,ENE,75,3.0,5.8,41,0.00,,,-99.99,FreeWX 2.04,2013-06-05 13:37:00,
2013-06-05 07:47:00,44.4,21.6,30.06,East,86,2.0,6.3,40,0.00,,,-99.99,FreeWX 2.04,2013-06-05 13:47:00,
2013-06-05 07:57:00,46.4,22.8,30.06,ENE,75,1.0,4.5,39,0.00,,,-99.99,FreeWX 2.04,2013-06-05 13:57:00,
2013-06-05 08:07:00,49.3,20.7,30.06,North,-999,0.0,0.0,32,0.00,,,-99.99,FreeWX 2.04,2013-06-05 14:07:00,
2013-06-05 08:17:00,51.1,19.9,30.06,North,-999,0.0,0.0,29,0.00,,,-99.99,FreeWX 2.04,2013-06-05 14:17:00,
2013-06-05 08:27:00,51.6,20.5,30.06,NNE,21,1.0,5.4,29,0.00,,,-99.99,FreeWX 2.04,2013-06-05 14:27:00,
2013-06-05 08:37:00,51.8,18.9,30.06,NNW,344,1.0,4.9,27,0.00,,,-99.99,FreeWX 2.04,2013-06-05 14:37:00,
2013-06-05 08:47:00,52.2,18.3,30.06,North,-999,0.0,0.0,26,0.00,,,-99.99,FreeWX 2.04,2013-06-05 14:47:00,
2013-06-05 08:57:00,53.1,18.1,30.06,North,-999,0.0,4.5,25,0.00,,,-99.99,FreeWX 2.04,2013-06-05 14:57:00,
2013-06-05 09:07:00,54.0,17.1,30.06,North,-999,0.0,4.9,23,0.00,,,-99.99,FreeWX 2.04,2013-06-05 15:07:00,
2013-06-05 09:17:00,55.8,11.7,30.06,North,-999,0.0,4.5,17,0.00,,,-99.99,FreeWX 2.04,2013-06-05 15:17:00,
2013-06-05 09:27:00,56.3,12.0,30.06,North,-999,0.0,4.0,17,0.00,,,-99.99,FreeWX 2.04,2013-06-05 15:27:00,
2013-06-05 09:37:00,57.7,13.3,30.06,North,-999,0.0,0.0,17,0.00,,,-99.99,FreeWX 2.04,2013-06-05 15:37:00,
2013-06-05 09:47:00,57.4,12.9,30.06,NW,320,1.0,6.3,17,0.00,,,-99.99,FreeWX 2.04,2013-06-05 15:47:00,
2013-06-05 09:57:00,57.9,9.0,30.06,NNW,331,2.0,5.8,14,0.00,,,-99.99,FreeWX 2.04,2013-06-05 15:57:00,
2013-06-05 10:07:00,58.5,9.5,30.06,North,351,2.0,7.4,14,0.00,,,-99.99,FreeWX 2.04,2013-06-05 16:07:00,
2013-06-05 10:17:00,59.4,10.2,30.06,NNW,333,1.0,5.4,14,0.00,,,-99.99,FreeWX 2.04,2013-06-05 16:17:00,
2013-06-05 10:27:00,59.9,10.6,30.06,North,349,3.0,7.4,14,0.00,,,-99.99,FreeWX 2.04,2013-06-05 16:27:00,
2013-06-05 10:37:00,59.7,10.4,30.06,NNW,330,4.0,7.4,14,0.00,,,-99.99,FreeWX 2.04,2013-06-05 16:37:00,
2013-06-05 10:47:00,60.1,13.8,30.06,North,356,3.0,9.6,16,0.00,,,-99.99,FreeWX 2.04,2013-06-05 16:47:00,
2013-06-05 10:57:00,60.4,11.1,30.06,NNW,335,4.0,10.5,14,0.00,,,-99.99,FreeWX 2.04,2013-06-05 16:57:00,
2013-06-05 11:07:00,60.1,10.8,30.06,WNW,287,4.0,9.2,14,0.00,,,-99.99,FreeWX 2.04,2013-06-05 17:07:00,
2013-06-05 11:17:00,60.8,14.4,30.06,NNE,14,4.0,11.0,16,0.00,,,-99.99,FreeWX 2.04,2013-06-05 17:17:00,
2013-06-05 11:27:00,61.5,11.8,30.06,NW,322,2.0,9.2,14,0.00,,,-99.99,FreeWX 2.04,2013-06-05 17:27:00,
2013-06-05 11:38:00,61.2,11.7,30.06,NNW,342,6.0,9.6,14,0.00,,,-99.99,FreeWX 2.04,2013-06-05 17:38:00,
2013-06-05 11:48:00,61.5,11.8,30.06,NNW,347,4.0,8.7,14,0.00,,,-99.99,FreeWX 2.04,2013-06-05 17:48:00,
2013-06-05 11:58:00,62.1,15.4,30.06,NNW,348,6.0,9.6,16,0.00,,,-99.99,FreeWX 2.04,2013-06-05 17:58:00,
2013-06-05 12:08:00,62.4,15.6,30.03,North,0,5.0,9.6,16,0.00,,,-99.99,FreeWX 2.04,2013-06-05 18:08:00,
2013-06-05 12:18:00,63.0,16.2,30.03,North,0,5.0,11.0,16,0.00,,,-99.99,FreeWX 2.04,2013-06-05 18:18:00,
2013-06-05 12:28:00,62.8,16.0,30.03,NNE,13,5.0,11.0,16,0.00,,,-99.99,FreeWX 2.04,2013-06-05 18:28:00,
2013-06-05 12:38:00,63.1,11.5,30.03,NNW,347,5.0,9.6,13,0.00,,,-99.99,FreeWX 2.04,2013-06-05 18:38:00,
2013-06-05 12:48:00,63.1,16.2,30.03,North,351,5.0,10.1,16,0.00,,,-99.99,FreeWX 2.04,2013-06-05 18:48:00,
2013-06-05 12:58:00,63.9,12.0,30.03,North,356,5.0,11.0,13,0.00,,,-99.99,FreeWX 2.04,2013-06-05 18:58:00,
2013-06-05 13:08:00,64.2,12.4,30.03,NNW,336,5.0,11.0,13,0.00,,,-99.99,FreeWX 2.04,2013-06-05 19:08:00,
2013-06-05 13:18:00,64.0,15.4,30.03,NNE,13,4.0,11.2,15,0.00,,,-99.99,FreeWX 2.04,2013-06-05 19:18:00,
2013-06-05 13:28:00,64.9,16.2,30.03,North,4,4.0,11.0,15,0.00,,,-99.99,FreeWX 2.04,2013-06-05 19:28:00,
2013-06-05 13:38:00,64.9,16.2,30.03,NNE,19,5.0,9.6,15,0.00,,,-99.99,FreeWX 2.04,2013-06-05 19:38:00,
2013-06-05 13:48:00,65.7,16.7,30.03,North,353,4.0,11.2,15,0.00,,,-99.99,FreeWX 2.04,2013-06-05 19:48:00,
2013-06-05 13:58:00,66.4,17.4,30.03,NNE,31,3.0,10.1,15,0.00,,,-99.99,FreeWX 2.04,2013-06-05 19:58:00,
2013-06-05 14:08:00,66.0,12.0,30.03,NW,317,7.0,12.1,12,0.00,,,-99.99,FreeWX 2.04,2013-06-05 20:08:00,
2013-06-05 14:18:00,66.2,20.1,30.03,NNW,332,8.0,13.4,17,0.00,,,-99.99,FreeWX 2.04,2013-06-05 20:18:00,
2013-06-05 14:28:00,66.2,17.2,30.03,NNW,328,7.0,11.2,15,0.00,,,-99.99,FreeWX 2.04,2013-06-05 20:28:00,
2013-06-05 14:38:00,67.5,13.1,30.03,West,280,5.0,9.2,12,0.00,,,-99.99,FreeWX 2.04,2013-06-05 20:38:00,
2013-06-05 14:48:00,66.7,12.6,30.03,NW,311,5.0,11.2,12,0.00,,,-99.99,FreeWX 2.04,2013-06-05 20:48:00,
2013-06-05 14:58:00,66.7,12.6,30.03,NNE,15,4.0,9.6,12,0.00,,,-99.99,FreeWX 2.04,2013-06-05 20:58:00,
2013-06-05 15:08:00,66.7,17.6,30.03,North,349,6.0,10.5,15,0.00,,,-99.99,FreeWX 2.04,2013-06-05 21:08:00,
2013-06-05 15:18:00,67.1,18.0,30.03,NNW,330,6.0,10.1,15,0.00,,,-99.99,FreeWX 2.04,2013-06-05 21:18:00,
2013-06-05 15:28:00,67.8,13.5,30.03,NNW,343,4.0,8.7,12,0.00,,,-99.99,FreeWX 2.04,2013-06-05 21:28:00,
2013-06-05 15:38:00,67.1,12.7,30.00,North,4,6.0,10.5,12,0.00,,,-99.99,FreeWX 2.04,2013-06-05 21:38:00,
2013-06-05 15:48:00,68.5,14.0,30.00,NW,321,4.0,8.3,12,0.00,,,-99.99,FreeWX 2.04,2013-06-05 21:48:00,
2013-06-05 15:58:00,68.0,13.5,30.00,NNW,347,4.0,8.7,12,0.00,,,-99.99,FreeWX 2.04,2013-06-05 21:58:00,
2013-06-05 16:08:00,67.8,13.5,30.00,NW,310,6.0,11.0,12,0.00,,,-99.99,FreeWX 2.04,2013-06-05 22:08:00,
2013-06-05 16:18:00,68.0,13.5,30.00,NNW,342,6.0,14.3,12,0.00,,,-99.99,FreeWX 2.04,2013-06-05 22:18:00,
2013-06-05 16:28:00,67.6,13.3,30.00,NW,307,6.0,12.5,12,0.00,,,-99.99,FreeWX 2.04,2013-06-05 22:28:00,
2013-06-05 16:38:00,67.3,12.9,30.00,NW,319,8.0,13.0,12,0.00,,,-99.99,FreeWX 2.04,2013-06-05 22:38:00,
2013-06-05 16:48:00,67.1,12.7,30.00,NNW,331,7.0,13.4,12,0.00,,,-99.99,FreeWX 2.04,2013-06-05 22:48:00,
2013-06-05 16:58:00,67.8,13.5,30.00,North,358,7.0,13.4,12,0.00,,,-99.99,FreeWX 2.04,2013-06-05 22:58:00,
2013-06-05 17:08:00,67.3,12.9,30.00,North,351,8.0,13.9,12,0.00,,,-99.99,FreeWX 2.04,2013-06-05 23:08:00,
2013-06-05 17:18:00,66.9,12.7,30.00,North,2,7.0,13.4,12,0.00,,,-99.99,FreeWX 2.04,2013-06-05 23:18:00,
2013-06-05 17:28:00,67.1,12.7,30.00,North,350,7.0,11.0,12,0.00,,,-99.99,FreeWX 2.04,2013-06-05 23:28:00,
2013-06-05 17:38:00,68.0,13.5,30.00,NNW,346,6.0,11.6,12,0.00,,,-99.99,FreeWX 2.04,2013-06-05 23:38:00,
2013-06-05 17:48:00,67.3,12.9,30.00,NNW,346,6.0,11.6,12,0.00,,,-99.99,FreeWX 2.04,2013-06-05 23:48:00,
2013-06-05 17:58:00,66.9,12.7,30.00,North,350,7.0,12.5,12,0.00,,,-99.99,FreeWX 2.04,2013-06-05 23:58:00,
2013-06-05 18:08:00,67.5,13.1,30.00,NNE,14,6.0,13.0,12,0.00,,,-99.99,FreeWX 2.04,2013-06-06 00:08:00,
2013-06-05 18:18:00,67.3,12.9,30.00,North,349,6.0,12.5,12,0.00,,,-99.99,FreeWX 2.04,2013-06-06 00:18:00,
2013-06-05 18:28:00,67.1,12.7,30.00,NNW,342,6.0,12.1,12,0.00,,,-99.99,FreeWX 2.04,2013-06-06 00:28:00,
2013-06-05 18:38:00,66.6,12.4,30.00,NNW,343,7.0,12.1,12,0.00,,,-99.99,FreeWX 2.04,2013-06-06 00:38:00,
2013-06-05 18:48:00,67.3,12.9,30.00,NNW,344,5.0,8.7,12,0.00,,,-99.99,FreeWX 2.04,2013-06-06 00:48:00,
2013-06-05 18:58:00,67.3,12.9,30.00,NNW,335,3.0,7.8,12,0.00,,,-99.99,FreeWX 2.04,2013-06-06 00:58:00,
2013-06-05 19:08:00,67.6,13.3,30.00,NNW,337,2.0,9.6,12,0.00,,,-99.99,FreeWX 2.04,2013-06-06 01:08:00,
2013-06-05 19:18:00,68.2,13.6,30.00,NNW,329,1.0,6.7,12,0.00,,,-99.99,FreeWX 2.04,2013-06-06 01:18:00,
2013-06-05 19:28:00,66.7,12.6,30.00,NNW,329,4.0,6.7,12,0.00,,,-99.99,FreeWX 2.04,2013-06-06 01:28:00,
2013-06-05 19:38:00,65.3,13.3,30.00,NW,323,5.0,8.3,13,0.00,,,-99.99,FreeWX 2.04,2013-06-06 01:38:00,
2013-06-05 19:48:00,64.2,12.4,30.00,North,351,5.0,8.3,13,0.00,,,-99.99,FreeWX 2.04,2013-06-06 01:48:00,
2013-06-05 19:58:00,63.1,11.5,30.00,North,359,5.0,7.8,13,0.00,,,-99.99,FreeWX 2.04,2013-06-06 01:58:00,
2013-06-05 20:08:00,63.3,11.7,30.00,North,1,3.0,5.8,13,0.00,,,-99.99,FreeWX 2.04,2013-06-06 02:08:00,
2013-06-05 20:18:00,63.5,11.8,30.00,North,7,3.0,6.9,13,0.00,,,-99.99,FreeWX 2.04,2013-06-06 02:18:00,
2013-06-05 20:28:00,62.4,10.9,30.00,North,-999,0.0,5.4,13,0.00,,,-99.99,FreeWX 2.04,2013-06-06 02:28:00,
2013-06-05 20:38:00,59.5,10.4,30.00,North,-999,0.0,4.9,14,0.00,,,-99.99,FreeWX 2.04,2013-06-06 02:38:00,
2013-06-05 20:48:00,57.7,13.3,30.00,ESE,122,4.0,6.9,17,0.00,,,-99.99,FreeWX 2.04,2013-06-06 02:48:00,
2013-06-05 20:58:00,56.3,18.0,30.00,ESE,112,4.0,5.8,22,0.00,,,-99.99,FreeWX 2.04,2013-06-06 02:58:00,
2013-06-05 21:08:00,54.5,20.3,30.00,SE,125,4.0,6.3,26,0.00,,,-99.99,FreeWX 2.04,2013-06-06 03:08:00,
2013-06-05 21:18:00,53.8,20.7,30.00,SE,124,4.0,7.4,27,0.00,,,-99.99,FreeWX 2.04,2013-06-06 03:18:00,
2013-06-05 21:28:00,53.1,20.8,30.00,East,94,3.0,6.9,28,0.00,,,-99.99,FreeWX 2.04,2013-06-06 03:28:00,
2013-06-05 21:38:00,52.3,21.0,30.00,East,97,4.0,8.7,29,0.00,,,-99.99,FreeWX 2.04,2013-06-06 03:38:00,
2013-06-05 21:48:00,51.3,21.7,30.00,East,88,2.0,6.9,31,0.00,,,-99.99,FreeWX 2.04,2013-06-06 03:48:00,
2013-06-05 21:58:00,52.5,20.3,30.00,East,97,4.0,8.7,28,0.00,,,-99.99,FreeWX 2.04,2013-06-06 03:58:00,
2013-06-05 22:08:00,51.6,20.5,30.00,East,94,4.0,8.3,29,0.00,,,-99.99,FreeWX 2.04,2013-06-06 04:08:00,
2013-06-05 22:19:00,51.6,20.5,30.00,East,99,5.0,9.6,29,0.00,,,-99.99,FreeWX 2.04,2013-06-06 04:19:00,
2013-06-05 22:29:00,52.2,19.2,30.00,East,100,6.0,12.5,27,0.00,,,-99.99,FreeWX 2.04,2013-06-06 04:29:00,
2013-06-05 22:39:00,51.6,18.7,30.03,ESE,106,6.0,10.1,27,0.00,,,-99.99,FreeWX 2.04,2013-06-06 04:39:00,
2013-06-05 22:49:00,50.9,19.0,30.03,ESE,105,6.0,10.1,28,0.00,,,-99.99,FreeWX 2.04,2013-06-06 04:49:00,
2013-06-05 22:59:00,49.5,20.1,30.00,East,94,4.0,9.2,31,0.00,,,-99.99,FreeWX 2.04,2013-06-06 04:59:00,
2013-06-05 23:09:00,50.2,19.2,30.00,East,99,5.0,10.1,29,0.00,,,-99.99,FreeWX 2.04,2013-06-06 05:09:00,
2013-06-05 23:19:00,50.7,18.9,30.00,ESE,103,6.0,10.5,28,0.00,,,-99.99,FreeWX 2.04,2013-06-06 05:19:00,
2013-06-05 23:29:00,50.4,19.4,30.00,ESE,102,4.0,9.2,29,0.00,,,-99.99,FreeWX 2.04,2013-06-06 05:29:00,
2013-06-05 23:39:00,50.5,18.7,30.00,ESE,108,6.0,9.6,28,0.00,,,-99.99,FreeWX 2.04,2013-06-06 05:39:00,
2013-06-05 23:49:00,49.3,18.3,30.00,ESE,103,5.0,11.2,29,0.00,,,-99.99,FreeWX 2.04,2013-06-06 05:49:00,
2013-06-05 23:59:00,48.9,19.6,30.00,East,101,4.0,8.7,31,0.00,,,-99.99,FreeWX 2.04,2013-06-06 05:59:00,